Date,TemperatureHighF,TemperatureAvgF,TemperatureLowF,DewpointHighF,DewpointAvgF,DewpointLowF,HumidityHigh,HumidityAvg,HumidityLow,PressureMaxIn,PressureMinIn,WindSpeedMaxMPH,WindSpeedAvgMPH,GustSpeedMaxMPH,PrecipitationSumIn
2013-1-1,39.6,36.1,32.7,38.4,35.0,32.5,99,96,89,30.05,29.90,2,0,2,0.00
2013-1-2,40.3,33.7,29.5,35.4,31.2,28.5,96,91,83,30.15,29.99,2,0,2,0.00
2013-1-3,41.2,36.0,32.7,35.7,31.7,26.3,94,86,58,29.96,29.88,4,0,4,0.00
2013-1-4,50.5,46.3,42.8,50.3,45.7,41.2,99,98,91,30.09,29.87,2,0,2,0.32
2013-1-5,46.2,41.6,37.9,43.9,40.4,37.7,99,96,85,30.19,30.04,5,1,5,0.00
2013-1-6,43.0,39.9,36.0,41.2,37.6,34.1,96,92,79,30.08,29.92,6,2,6,5.55
2013-1-7,45.1,43.0,40.1,41.8,40.3,39.1,97,90,81,29.99,29.75,8,2,8,0.01
2013-1-8,50.5,47.1,42.3,48.3,44.6,41.5,99,91,84,29.98,29.62,11,4,11,0.02
2013-1-9,51.3,48.5,42.4,50.3,47.4,41.0,99,96,88,29.97,29.54,17,6,17,0.50
2013-1-10,45.1,39.5,35.2,44.2,37.6,33.7,99,93,86,29.81,29.51,6,2,8,0.60
2013-1-11,37.9,35.3,31.3,36.6,33.4,27.3,96,93,80,29.97,29.80,4,0,4,0.02
2013-1-12,36.3,31.1,27.1,29.6,26.9,23.7,96,85,64,30.17,29.97,4,0,4,0.00
2013-1-13,35.8,29.8,26.6,31.0,26.3,23.7,97,87,70,30.28,30.16,4,0,4,0.00
2013-1-14,36.3,29.2,26.4,31.3,27.6,25.5,97,94,75,30.32,30.25,1,0,1,0.00
2013-1-15,41.2,37.8,35.2,38.8,35.6,31.2,96,92,85,29.95,29.54,4,2,4,0.00
2013-1-16,44.1,35.7,30.6,40.4,33.3,28.5,96,91,85,29.92,29.37,4,1,4,0.00
2013-1-17,41.5,34.7,29.5,35.5,31.9,28.1,98,90,74,29.92,29.74,5,1,5,0.00
2013-1-18,39.2,35.1,29.8,37.6,34.0,28.9,99,96,92,29.76,29.52,2,0,2,0.00
2013-1-19,39.0,35.4,33.3,38.8,35.0,33.0,99,99,97,29.57,29.50,3,0,3,0.00
2013-1-20,36.7,35.0,33.1,36.4,34.4,32.8,99,98,94,29.63,29.57,3,0,3,0.00
2013-1-21,41.5,36.8,33.6,39.1,35.9,32.5,99,96,88,29.92,29.61,4,0,4,0.00
2013-1-22,39.2,35.5,32.7,38.3,34.7,32.2,99,97,91,29.82,29.66,2,0,2,0.00
2013-1-23,41.0,37.0,32.7,39.6,35.7,32.5,99,95,87,29.68,29.43,3,0,3,0.00
2013-1-24,42.8,41.7,39.6,41.9,38.8,33.9,98,90,73,29.72,29.40,7,1,7,0.19
2013-1-25,45.0,42.2,40.5,42.7,39.9,36.8,99,92,75,29.76,29.57,7,1,7,0.11
2013-1-26,50.2,45.1,38.5,46.9,43.0,35.5,99,92,81,30.10,29.50,7,1,7,7.08
2013-1-27,44.2,42.1,39.7,41.4,39.9,37.9,99,92,85,29.99,29.85,9,2,9,0.13
2013-1-28,42.4,41.1,40.3,40.0,38.8,36.9,96,91,87,30.03,29.94,8,2,8,0.05
2013-1-29,42.3,41.1,38.8,42.0,40.3,38.3,99,97,94,30.09,29.97,6,1,6,0.15
2013-1-30,48.0,44.9,41.9,47.8,44.5,41.6,99,98,95,30.31,30.09,9,1,9,0.24
2013-1-31,47.7,46.1,0.0,46.3,45.6,44.4,99,97,94,30.36,30.30,3,1,3,0.17
2013-2-1,52.2,47.2,45.7,51.3,44.8,42.5,99,92,78,30.37,30.27,5,1,5,0.07
2013-2-2,49.5,45.2,42.1,47.4,44.1,41.6,99,96,86,30.39,30.32,9,2,9,0.01
2013-2-3,45.0,41.9,39.6,42.2,40.9,39.3,99,96,89,30.35,30.20,7,1,7,0.00
2013-2-4,50.0,43.9,36.0,45.5,41.9,34.1,98,93,83,29.93,29.79,5,2,5,0.05
2013-2-5,51.4,46.5,44.1,45.1,43.1,42.1,95,88,73,29.91,29.58,5,1,5,0.00
2013-2-6,50.5,45.8,43.7,44.9,42.8,41.1,97,89,75,29.67,29.54,11,4,11,0.08
2013-2-7,50.9,45.2,42.8,43.9,42.2,40.4,96,89,72,29.76,29.48,14,2,14,0.11
2013-2-8,47.1,43.0,41.4,41.5,38.8,37.4,93,85,74,29.75,29.56,11,4,11,0.07
2013-2-9,45.9,42.0,38.1,40.3,38.1,36.5,96,86,75,30.02,29.93,3,0,3,0.00
2013-2-10,46.6,42.6,40.8,41.3,39.8,37.5,97,90,72,30.04,29.95,3,0,3,0.01
2013-2-11,45.5,41.3,35.2,41.8,38.9,34.7,99,91,77,30.09,30.01,4,0,4,0.00
2013-2-12,49.3,44.3,41.0,43.5,41.1,39.2,96,89,70,30.07,30.01,4,1,4,0.01
2013-2-13,49.5,46.7,43.7,47.2,45.2,43.0,99,95,86,30.09,29.96,12,3,12,0.02
2013-2-14,46.9,46.2,45.3,45.6,45.0,44.0,96,95,95,30.06,30.04,4,0,4,0.01
2013-2-15,47.3,45.7,43.3,45.5,44.3,41.4,98,95,87,30.26,30.20,3,0,3,0.04
2013-2-16,51.3,45.1,39.7,44.9,42.9,39.0,99,92,78,30.24,29.86,9,2,9,0.00
2013-2-17,53.8,46.0,41.7,45.2,42.9,39.8,99,89,65,29.87,29.80,11,2,11,0.02
2013-2-22,43.5,42.6,41.9,41.4,40.5,40.0,95,92,88,29.75,29.47,11,5,11,0.06
2013-2-23,46.8,41.3,37.4,43.0,37.5,33.6,94,87,75,29.89,29.39,11,3,11,0.08
2013-2-24,50.9,49.5,47.5,40.8,39.9,39.1,75,69,65,29.90,29.89,3,1,3,0.00
2013-2-26,53.6,44.2,38.1,38.0,34.7,30.9,88,71,44,30.03,29.75,9,2,9,0.28
2013-2-27,48.0,43.6,38.3,39.1,36.3,33.7,90,76,59,30.06,29.89,11,2,11,0.01
2013-2-28,42.1,41.7,41.5,40.2,39.4,38.8,93,91,90,29.94,29.93,10,3,11,0.01
2013-3-1,51.6,48.2,42.3,51.1,47.9,42.0,99,99,98,30.03,29.90,7,2,7,0.17
2013-3-2,56.5,52.2,50.0,51.9,50.2,48.8,99,93,83,30.07,29.95,12,4,12,0.11
2013-3-3,57.2,48.3,37.0,49.7,44.7,36.3,97,88,72,29.96,29.76,8,2,8,0.11
2013-3-4,50.4,40.8,35.1,40.0,35.9,31.9,98,83,56,30.01,29.91,6,1,6,0.00
2013-3-5,50.9,41.5,32.2,38.5,32.4,27.2,91,71,52,30.01,29.62,8,1,8,0.00
2013-3-6,50.5,44.6,41.0,41.0,37.4,27.2,94,77,57,29.63,29.39,7,1,7,0.00
2013-3-7,43.5,42.2,40.5,42.0,40.5,-9.8,99,95,10,29.65,29.29,11,2,11,0.35
2013-3-8,52.9,45.2,38.7,45.0,42.3,37.7,99,90,68,29.81,29.65,6,1,6,0.11
2013-3-9,54.0,43.4,37.2,42.0,38.9,34.3,99,85,60,29.96,29.79,8,2,8,0.00
2013-3-10,58.5,43.9,34.0,44.1,38.6,33.2,99,83,52,30.18,29.96,4,1,4,0.00
2013-3-11,51.3,44.1,39.7,43.6,41.0,37.6,96,89,73,30.21,30.12,4,0,4,0.01
2013-3-12,54.9,47.7,41.5,48.5,44.2,40.8,98,88,65,30.14,29.81,9,1,9,0.02
2013-3-13,50.5,49.9,49.3,49.1,48.8,48.5,97,96,94,29.83,29.80,8,4,8,0.00
2013-3-15,50.5,50.5,50.5,45.9,45.9,45.7,84,84,84,29.81,29.81,4,3,7,0.01
2013-3-18,52.5,39.9,36.0,37.1,35.6,34.1,94,86,53,29.97,29.88,7,2,7,9.94
2013-3-19,58.8,44.5,38.1,42.9,36.0,33.5,90,73,46,30.01,29.87,11,2,11,0.00
2013-3-20,57.7,44.1,36.9,44.7,38.6,32.7,99,83,44,29.97,29.27,4,1,4,0.27
2013-3-21,54.7,45.8,37.2,49.7,40.7,32.7,99,83,58,29.86,29.16,18,5,18,0.33
2013-3-22,55.9,40.1,22.6,41.4,32.6,-13.9,96,79,10,30.02,29.86,25,3,25,0.01
2013-3-23,57.2,40.3,34.5,37.9,32.4,27.4,95,75,37,30.18,30.01,6,1,6,0.00
2013-3-24,63.1,43.5,35.2,33.9,30.4,25.5,84,63,27,30.19,30.05,4,1,4,0.00
2013-3-25,58.6,43.3,37.8,36.7,31.4,27.5,77,65,37,30.07,29.89,3,0,3,0.00
2013-3-26,65.5,49.5,37.2,41.1,32.1,25.8,81,54,24,29.89,29.70,7,2,7,0.00
2013-3-27,67.8,51.9,45.1,43.4,39.2,35.0,82,63,35,29.80,29.73,41,2,41,0.00
2013-3-28,58.5,49.7,45.9,48.7,43.7,38.5,93,81,57,29.79,29.71,5,1,5,0.01
2013-3-29,66.2,51.4,46.0,51.3,47.0,44.5,98,86,51,29.86,29.78,4,1,4,0.04
2013-3-30,70.7,53.9,44.8,48.7,45.7,42.9,95,76,40,30.03,29.95,6,2,6,0.00
2013-3-31,67.8,52.6,37.6,48.5,43.8,35.2,99,73,46,30.05,29.87,10,3,10,10.64
2013-4-1,73.8,56.9,47.3,47.4,43.3,39.0,95,63,36,29.89,29.73,9,2,9,0.00
2013-4-2,68.2,53.3,47.3,51.4,47.6,44.8,95,82,54,30.02,29.84,7,2,7,0.00
2013-4-3,61.7,52.3,46.2,50.0,46.2,43.8,94,80,65,30.03,29.98,5,1,5,0.00
2013-4-4,67.6,54.3,46.0,49.4,45.9,43.8,97,75,46,30.02,29.71,7,2,7,0.00
2013-4-5,55.2,51.5,49.1,53.7,49.4,44.8,99,92,84,29.72,29.47,9,2,9,0.30
2013-4-6,55.4,51.3,48.0,50.5,49.1,46.9,99,93,79,29.71,29.53,11,4,11,0.43
2013-4-7,56.3,47.3,43.2,50.2,44.8,42.1,97,91,72,29.75,29.39,9,3,14,0.33
2013-4-8,50.2,44.0,39.7,47.4,42.7,38.8,99,95,87,29.79,29.34,8,1,8,0.52
2013-4-9,62.4,49.1,38.8,47.4,44.0,35.6,99,84,54,30.08,29.79,5,2,5,0.04
2013-4-10,57.2,50.7,44.1,46.2,43.2,41.6,93,76,62,30.12,29.87,6,1,6,0.00
2013-4-11,65.7,53.2,45.9,52.6,46.2,41.9,99,78,55,30.04,29.70,11,2,11,0.13
2013-4-12,60.6,49.5,44.8,46.9,41.3,36.6,94,75,42,30.07,29.99,8,2,8,0.06
2013-4-17,57.9,55.4,54.5,38.3,37.4,35.4,52,51,48,29.92,29.91,3,1,3,12.80
2013-5-12,79.7,78.1,76.5,52.2,49.4,45.3,41,37,33,29.92,29.90,2,0,5,0.00
2013-5-13,74.3,60.5,55.9,58.0,55.4,52.9,95,84,55,29.93,29.84,2,0,9,0.07
2013-5-14,66.6,55.1,38.8,56.9,49.1,35.6,94,81,61,30.10,29.76,8,2,17,0.38
2013-5-15,76.5,58.6,48.6,46.5,43.3,36.7,86,60,26,30.12,29.99,3,0,7,0.00
2013-5-16,67.3,56.5,47.1,52.9,49.4,38.8,97,79,36,29.99,29.88,4,0,7,0.05
2013-5-17,75.2,61.1,52.9,54.9,52.0,48.5,97,74,41,29.89,29.75,3,1,8,0.00
2013-5-18,70.0,57.8,51.3,53.1,50.0,47.2,92,77,51,29.97,29.85,4,1,8,0.01
2013-5-19,65.3,57.2,51.6,49.5,47.9,45.7,90,72,52,30.22,29.97,4,1,8,0.00
2013-5-20,69.8,57.5,47.7,53.3,49.2,44.9,90,75,49,30.29,30.22,3,1,8,0.00
2013-5-21,77.4,56.9,47.1,52.3,48.4,44.8,96,76,36,30.23,29.76,4,1,11,0.17
2013-5-22,60.3,50.3,46.2,54.0,47.0,44.8,97,89,64,29.77,29.67,4,1,11,0.37
2013-5-23,56.7,49.0,45.9,49.0,46.2,43.9,98,90,73,29.85,29.74,4,0,7,0.04
2013-5-24,59.4,50.0,45.0,49.3,45.5,43.4,97,85,59,29.90,29.85,4,1,9,0.06
2013-5-25,72.9,56.0,46.6,50.1,47.7,43.6,96,76,39,29.94,29.87,4,1,8,0.01
2013-5-26,70.3,56.6,50.2,50.2,47.9,43.9,94,75,41,29.94,29.84,4,1,7,0.01
2013-5-27,70.3,56.7,49.6,56.2,51.6,48.0,96,84,57,29.89,29.79,4,1,8,0.06
2013-5-28,61.2,56.3,38.8,58.0,53.9,35.6,94,92,85,30.31,29.59,4,0,11,0.25
2013-5-29,64.2,55.9,51.4,57.1,49.9,47.0,95,81,63,30.07,29.89,5,1,9,0.01
2013-5-30,62.1,54.1,49.5,52.3,49.6,46.4,97,85,64,30.20,29.88,5,1,11,0.14
2013-5-31,65.1,55.3,49.1,49.7,47.8,46.1,91,77,52,30.47,30.20,4,1,10,0.00
2013-6-1,75.9,59.3,50.5,50.4,47.1,39.3,92,67,29,30.53,30.41,3,1,6,0.00
2013-6-2,82.2,61.9,53.1,51.3,48.4,45.0,84,63,30,30.42,30.23,4,1,12,0.01
2013-6-3,78.3,62.4,52.2,53.3,51.1,49.2,94,69,38,30.28,30.22,3,0,9,0.01
2013-6-4,82.0,61.3,51.6,55.8,52.0,49.6,97,74,36,30.32,30.23,3,1,8,0.00
2013-6-5,82.2,65.8,52.5,55.6,51.0,46.6,91,62,34,30.33,30.20,4,1,11,0.00
2013-6-6,83.1,65.9,54.9,59.9,54.4,47.0,87,68,45,30.29,30.20,4,1,9,0.00
2013-6-7,83.7,65.6,53.6,55.5,50.6,44.9,91,62,29,30.25,30.18,5,1,9,0.00
2013-6-8,68.9,61.5,55.0,56.5,51.1,47.0,84,69,48,30.37,30.23,3,1,8,0.00
2013-6-9,75.7,61.1,53.8,53.2,49.9,47.4,81,67,43,30.38,30.27,4,1,9,0.00
2013-6-10,72.7,58.5,51.8,51.5,48.0,45.0,85,69,42,30.31,30.20,4,1,11,0.00
2013-6-11,80.1,61.1,49.3,51.5,48.3,44.5,85,66,32,30.21,30.06,4,1,8,0.00
2013-6-12,70.7,57.5,52.2,54.9,48.3,46.4,88,73,45,30.30,30.15,6,2,14,0.09
2013-6-13,74.3,59.7,52.2,51.2,49.0,45.6,88,70,38,30.34,30.27,4,1,8,0.01
2013-6-14,74.3,61.2,53.1,53.2,50.3,48.4,89,69,42,30.41,30.33,3,0,5,0.00
2013-6-15,75.9,60.9,52.5,51.5,49.8,47.6,92,69,41,30.42,30.20,4,1,8,0.00
2013-6-16,75.9,63.0,32.0,54.9,51.8,29.1,95,69,42,30.21,30.09,4,1,11,0.00
2013-6-17,80.4,65.8,9.0,57.3,53.7,-19.0,93,67,10,30.27,30.20,100,1,100,0.00
2013-6-18,84.7,65.7,55.4,55.6,52.9,46.5,93,67,29,30.26,30.07,4,1,11,0.01
2013-6-19,83.5,64.6,54.3,54.7,50.1,41.1,93,64,24,30.17,30.05,4,1,12,0.00
2013-6-20,70.0,60.4,54.7,54.4,51.7,50.1,91,74,53,30.20,30.10,4,1,8,0.00
2013-6-21,63.0,56.9,53.8,56.6,53.6,51.0,99,89,71,30.31,30.13,4,0,9,0.22
2013-6-22,77.2,61.9,53.4,55.8,52.4,48.3,99,74,39,30.35,30.27,3,0,8,0.04
2013-6-23,87.3,67.5,53.8,56.8,52.9,48.7,95,63,31,30.28,29.98,4,1,11,0.00
2013-6-24,73.9,64.8,59.2,61.7,58.5,53.0,99,81,62,29.99,29.76,3,0,5,0.11
2013-6-25,71.8,62.1,55.8,59.8,56.1,54.4,99,82,59,29.88,29.76,7,1,11,0.08
2013-6-26,80.4,62.9,56.5,60.6,57.7,54.1,99,86,42,30.06,29.86,6,1,16,0.41
2013-6-27,73.2,64.4,58.1,62.6,58.8,56.2,99,83,63,30.26,30.04,4,0,8,0.04
2013-6-28,62.8,62.5,60.4,62.2,61.5,57.3,98,97,86,30.26,30.22,0,0,1,0.05
2013-6-29,62.8,62.8,62.8,61.9,61.9,61.9,97,97,97,30.26,30.26,0,0,1,0.00
2013-6-30,93.0,71.6,61.7,67.3,61.2,55.0,97,73,39,30.26,29.85,5,1,11,0.40
2013-7-1,90.5,75.0,61.0,67.1,61.9,54.3,84,65,45,29.86,29.70,5,2,14,0.00
2013-7-2,87.6,73.4,38.8,65.7,61.9,35.6,88,69,46,30.13,29.78,4,1,9,0.00
2013-7-3,81.7,71.0,59.5,64.0,55.6,47.9,94,59,38,30.11,30.01,6,1,13,0.00
2013-7-4,78.4,63.0,37.0,57.1,51.5,34.9,92,67,47,30.14,29.85,5,1,11,16.52
2013-7-5,75.2,63.2,54.1,56.4,54.4,51.4,91,74,50,29.94,29.83,6,1,10,0.00
2013-7-6,81.1,65.2,53.8,58.1,55.7,51.4,97,74,45,29.86,29.76,5,1,9,0.00
2013-7-7,82.0,65.8,54.3,59.1,55.2,51.2,99,71,36,29.80,29.68,4,1,10,0.00
2013-7-8,79.0,66.7,51.8,62.0,58.3,20.6,97,76,29,29.82,29.69,4,2,8,0.05
2013-7-9,82.4,67.6,58.5,60.6,58.7,55.7,94,74,46,29.96,29.81,3,1,8,0.00
2013-7-10,85.3,69.1,55.9,61.7,56.4,52.3,99,66,40,29.99,29.86,5,1,12,0.00
2013-7-11,77.0,62.6,56.3,58.3,54.5,49.0,94,76,52,29.95,29.82,6,2,11,0.00
2013-7-12,78.8,62.2,53.6,53.9,50.1,48.1,84,66,40,29.97,29.87,5,2,12,0.00
2013-7-13,74.8,60.2,50.9,56.3,51.2,45.6,85,73,50,30.03,29.90,4,0,7,0.00
2013-7-14,80.2,62.8,-11.2,55.3,47.5,-52.2,88,60,10,30.09,29.98,8,2,12,0.00
2013-7-15,86.0,67.7,53.2,53.8,50.1,46.1,91,57,25,30.03,29.86,6,2,13,0.00
2013-7-16,80.1,69.0,56.1,57.2,50.2,44.8,82,53,31,29.94,29.76,8,2,15,0.00
2013-7-17,86.0,72.7,61.7,57.4,52.2,45.6,85,50,33,29.86,29.67,7,2,15,0.00
2013-7-18,74.8,64.8,57.0,59.8,56.4,54.0,92,75,57,30.08,29.85,6,2,11,0.00
2013-7-19,82.9,66.4,56.3,60.0,56.8,54.0,94,73,44,30.11,29.99,4,1,10,0.00
2013-7-20,83.8,66.1,54.0,62.9,58.0,52.9,98,77,46,30.05,29.90,4,1,11,0.00
2013-7-21,82.0,63.1,54.7,61.6,57.3,54.4,99,83,50,29.98,29.83,4,1,10,0.00
2013-7-22,80.4,63.9,55.0,61.1,57.7,54.8,99,82,50,29.87,29.77,4,1,9,0.00
2013-7-23,83.8,65.6,3.6,63.2,57.7,0.9,99,78,45,29.95,29.86,13,1,13,0.00
2013-7-24,85.3,67.9,42.8,62.2,55.2,42.5,99,68,31,29.96,29.83,97,2,97,0.14
2013-7-25,86.2,69.3,0.0,61.9,53.8,46.6,94,59,27,29.93,29.86,5,1,10,0.00
2013-7-26,91.2,70.0,53.1,59.3,54.9,50.9,99,62,31,29.98,29.92,4,1,10,0.00
2013-7-27,87.1,68.9,53.6,59.7,52.6,43.1,91,60,29,30.03,29.93,5,1,13,0.00
2013-7-28,56.1,55.0,53.6,53.4,52.8,50.1,94,93,88,30.03,30.01,4,2,6,0.00
2013-7-29,77.0,58.5,54.9,59.1,53.9,52.6,93,86,54,30.03,29.92,2,2,7,0.01
2013-7-30,82.8,40.3,0.0,57.7,55.4,52.6,92,41,39,30.00,29.92,4,0,8,0.00
2013-7-31,0.0,0.0,0.0,56.5,56.5,56.5,0,0,100,29.93,29.93,0,0,0,0.00
2013-8-1,0.0,0.0,0.0,56.5,56.5,56.5,0,0,100,29.93,29.93,0,0,0,0.00
2013-8-2,0.0,0.0,0.0,56.5,56.5,56.5,0,0,100,29.93,29.93,0,0,0,0.00
2013-8-3,0.0,0.0,0.0,56.5,56.5,56.5,0,0,100,29.93,29.93,0,0,0,0.00
2013-8-4,0.0,0.0,0.0,56.5,56.5,56.5,0,0,100,29.93,29.93,0,0,0,0.00
2013-8-5,0.0,0.0,0.0,56.5,56.5,56.5,0,0,100,29.93,29.93,0,0,0,0.00
2013-8-6,88.9,69.1,57.7,63.4,57.3,51.8,96,68,40,29.99,29.89,6,1,10,0.00
2013-8-7,93.0,69.7,54.5,62.0,55.5,48.2,96,65,25,29.99,29.87,5,1,11,0.00
2013-8-8,94.1,69.0,55.4,61.7,56.8,53.8,97,69,28,29.99,29.91,6,1,11,0.00
2013-8-9,88.7,67.6,57.4,62.2,57.7,-17.2,98,73,39,30.02,29.90,49,2,50,0.00
2013-8-10,86.0,69.4,55.6,62.0,58.4,54.6,99,71,41,29.93,29.80,4,1,9,0.15
2013-8-11,91.4,65.7,56.3,75.1,60.2,49.2,99,84,53,30.01,29.86,5,1,11,0.15
2013-8-12,80.6,65.7,57.2,60.1,56.1,54.5,94,73,43,30.04,29.94,4,2,9,0.00
2013-8-13,62.8,61.8,61.5,57.0,56.0,55.6,82,81,81,30.06,29.96,3,2,8,0.00
2013-8-14,62.6,62.6,62.6,57.0,57.0,57.0,82,82,82,30.09,29.89,1,1,2,0.00
2013-8-15,65.3,62.0,1.6,63.2,56.5,-42.1,93,83,10,29.93,29.87,2,0,24,0.01
2013-8-16,68.7,64.1,18.1,66.9,61.6,-29.5,99,93,10,29.97,29.91,2,0,4,0.06
2013-8-17,80.8,67.3,63.0,59.7,57.2,50.6,84,71,35,29.98,29.91,4,1,9,0.01
2013-8-18,83.8,67.1,60.8,63.0,58.8,55.6,87,75,48,30.06,29.97,6,1,11,0.00
2013-8-19,84.6,66.3,58.6,61.7,57.0,52.5,94,73,44,30.10,30.04,7,1,14,0.00
2013-8-20,87.1,67.6,56.8,61.1,55.8,51.5,91,68,40,30.10,30.03,6,1,14,0.00
2013-8-21,78.3,65.7,56.7,58.0,52.9,48.9,82,65,41,30.15,30.03,5,2,11,0.00
2013-8-22,78.8,67.9,55.8,56.5,53.4,49.5,83,61,46,30.07,29.89,6,2,14,0.00
2013-8-23,84.4,70.3,59.0,58.0,55.3,50.9,90,61,37,29.91,29.76,5,1,11,0.00
2013-8-24,79.2,66.9,60.8,60.0,57.8,55.7,90,74,50,29.86,29.81,6,2,12,0.00
2013-8-25,81.9,65.6,56.7,59.2,56.5,53.2,90,74,41,29.90,29.81,5,1,14,0.00
2013-8-26,75.4,65.0,55.8,59.0,55.7,53.2,93,73,49,29.92,29.83,4,1,10,0.01
2013-8-27,80.1,65.6,59.2,61.5,57.5,52.2,89,76,45,29.93,29.81,7,1,12,0.04
2013-8-28,83.7,68.4,59.7,62.5,58.9,53.8,96,74,46,29.91,29.75,7,1,14,0.07
2013-8-29,86.7,69.4,59.5,67.7,62.0,58.6,99,79,46,29.86,29.80,4,0,8,0.21
2013-8-30,76.8,67.1,62.2,71.4,65.1,60.5,99,94,72,30.03,29.81,6,1,11,0.77
2013-8-31,86.9,68.0,58.1,63.8,58.2,54.7,96,74,36,30.12,30.02,5,2,13,0.12
2013-9-1,78.1,66.1,56.8,61.1,58.1,55.3,98,77,54,30.03,29.80,5,2,13,0.00
2013-9-2,88.7,68.4,56.7,63.8,59.2,55.1,99,75,42,29.87,29.75,4,1,9,0.00
2013-9-3,87.8,69.8,59.4,62.3,59.0,56.1,96,71,38,29.93,29.82,5,1,11,0.05
2013-9-4,77.9,65.4,59.7,65.5,61.6,59.0,99,88,64,30.00,29.91,4,1,9,0.26
2013-9-5,75.2,64.3,59.0,64.2,60.8,58.6,99,89,68,30.02,29.97,4,1,9,0.02
2013-9-6,70.2,62.2,59.4,63.7,60.2,58.2,99,93,77,30.01,29.89,4,1,9,2.03
2013-9-7,75.2,64.1,60.4,67.4,62.0,60.2,99,93,71,30.08,29.92,4,1,8,2.33
2013-9-8,76.3,64.2,57.9,63.6,60.6,57.5,99,89,63,30.06,29.98,4,1,8,0.01
2013-9-9,84.7,66.5,55.9,63.7,59.6,55.7,99,81,47,30.08,29.99,4,1,9,0.01
2013-9-10,78.4,63.8,56.1,67.9,59.4,55.9,99,87,58,30.05,29.94,5,1,11,0.00
2013-9-11,77.5,66.6,55.9,63.9,59.7,55.7,99,79,62,29.98,29.85,6,2,13,0.00
2013-9-12,87.4,70.6,60.3,64.5,60.2,56.5,97,71,46,29.92,29.83,4,1,10,0.00
2013-9-13,86.4,65.5,59.2,66.0,60.6,58.0,99,86,49,29.98,29.86,4,1,8,0.00
2013-9-14,68.9,63.3,59.4,63.4,61.3,59.1,99,94,80,29.94,29.82,4,0,7,0.01
2013-9-15,73.2,61.7,56.5,63.3,59.7,56.2,99,93,70,29.84,29.69,4,1,8,0.00
2013-9-16,65.5,60.6,55.9,65.2,59.9,55.7,99,98,92,29.82,29.69,5,1,9,0.00
2013-9-17,70.2,61.0,56.8,62.3,57.8,53.2,98,89,73,29.90,29.82,4,1,11,0.00
2013-9-18,65.3,58.7,51.8,57.3,54.4,50.5,98,86,70,29.95,29.83,3,0,6,0.00
2013-9-19,55.9,55.5,54.5,55.4,54.5,53.7,98,97,96,29.99,29.95,3,1,5,0.00
2013-9-20,86.7,64.6,49.3,58.3,52.1,48.2,98,67,33,29.98,29.70,2,0,4,0.00
2013-9-21,76.1,62.5,55.6,58.4,55.3,50.6,99,79,49,29.69,29.55,4,1,10,0.00
2013-9-22,77.4,60.6,55.6,59.4,55.6,53.7,99,84,52,29.70,29.62,6,2,12,0.00
2013-9-23,68.4,57.3,54.3,58.2,54.6,9.7,99,91,68,29.77,29.54,8,2,20,0.00
2013-9-24,63.0,56.0,51.3,56.4,53.4,49.8,99,91,77,29.94,29.77,7,1,13,0.00
2013-9-25,67.1,55.4,50.4,55.1,51.0,49.0,99,86,56,29.91,29.79,6,1,10,0.00
2013-9-26,63.3,52.3,47.1,51.9,49.3,46.1,99,90,60,30.02,29.84,5,1,13,0.00
2013-9-27,69.4,54.3,45.9,53.9,49.7,45.6,99,86,52,30.10,30.01,4,0,8,0.00
2013-9-28,57.2,54.9,51.8,54.4,52.7,49.3,98,92,84,30.05,29.72,8,2,14,0.00
2013-9-29,60.3,55.5,52.3,59.8,54.9,51.0,99,98,92,29.72,29.30,8,2,17,0.00
2013-9-30,55.6,53.3,49.6,53.9,51.1,45.5,99,92,79,29.53,29.12,10,3,20,0.00
2013-10-1,62.1,52.8,49.8,53.0,49.5,46.9,98,89,68,29.90,29.44,8,3,20,0.00
2013-10-2,60.8,52.8,47.5,54.9,48.8,46.4,98,87,64,30.08,29.89,8,2,14,0.00
2013-10-3,58.6,51.0,49.1,53.0,49.3,48.0,99,94,74,30.21,30.02,4,0,11,0.00
2013-10-4,66.9,51.0,44.4,51.3,47.4,43.9,99,88,53,30.44,30.21,3,0,6,0.00
2013-10-5,66.0,52.5,43.7,50.6,47.5,43.4,99,84,55,30.45,30.30,3,0,6,0.00
2013-10-6,69.6,55.9,45.5,57.7,48.7,45.2,99,79,48,30.32,30.07,4,1,8,0.00
2013-10-7,75.0,57.9,46.0,57.0,50.3,44.7,99,78,42,30.08,29.83,5,1,13,0.00
2013-10-8,62.6,55.2,51.1,53.2,50.6,46.7,98,85,59,29.99,29.86,7,2,19,0.00
2013-10-9,58.3,50.3,44.4,52.8,47.2,43.1,97,89,65,30.09,29.93,4,0,10,0.00
2013-10-10,59.7,50.2,42.8,52.5,46.0,42.0,99,86,62,30.11,29.92,2,0,4,0.00
2013-10-11,60.6,53.3,46.9,50.7,49.4,45.3,98,87,66,30.08,29.91,4,0,8,0.00
2013-10-12,57.0,51.7,47.8,52.5,49.9,46.8,98,94,79,30.12,30.03,2,0,4,0.00
2013-10-13,57.2,50.7,46.2,51.9,48.5,45.6,99,93,75,30.22,30.04,4,1,13,0.18
2013-10-14,58.8,49.9,44.1,49.8,46.5,43.5,99,89,60,30.35,30.21,3,0,7,0.00
2013-10-15,58.1,49.1,42.4,49.5,46.6,42.2,99,92,66,30.41,30.32,3,1,8,0.01
2013-10-16,58.5,51.0,45.9,51.7,48.6,45.6,99,92,71,30.35,30.14,3,0,5,0.00
2013-10-17,56.1,50.9,46.9,51.0,49.0,45.9,99,93,82,30.20,30.12,4,1,9,0.00
2013-10-18,56.3,51.2,46.0,50.4,48.9,45.5,98,92,79,30.25,30.18,4,0,8,0.00
2013-10-19,51.8,48.5,45.9,50.7,47.9,45.6,99,98,94,30.22,30.11,4,1,10,0.01
2013-10-20,50.0,47.5,46.2,49.6,47.2,46.0,99,99,99,30.18,30.11,2,0,6,0.00
2013-10-21,50.2,48.3,46.9,49.6,47.9,46.7,99,98,96,30.18,30.12,3,0,6,0.00
2013-10-22,51.4,48.7,46.9,50.5,48.3,46.7,99,99,96,30.15,30.07,3,0,6,0.00
2013-10-23,51.6,48.3,46.4,51.4,48.0,46.1,99,99,97,30.09,30.01,3,1,8,0.02
2013-10-24,54.5,48.0,44.4,54.1,47.4,44.2,99,98,86,30.03,29.95,2,0,5,0.02
2013-10-25,49.5,47.7,45.3,49.2,47.4,45.1,99,99,99,30.14,30.00,3,0,6,0.01
2013-10-26,55.0,49.6,46.4,54.2,49.0,46.1,99,98,91,30.30,30.14,2,0,4,0.04
2013-10-27,55.0,50.9,49.1,50.0,48.0,46.5,99,90,80,30.30,30.07,4,0,9,0.00
2013-10-28,55.8,51.1,46.8,50.4,46.6,42.7,99,85,71,30.07,29.85,7,1,15,0.24
2013-10-29,51.8,50.5,43.0,46.7,40.1,34.5,99,68,53,30.04,29.89,4,1,8,0.31
2013-10-30,57.4,45.6,37.9,42.9,39.1,35.1,95,79,55,30.03,29.95,3,0,7,0.00
2013-10-31,55.9,50.3,41.5,48.4,44.3,38.7,91,80,68,30.12,30.05,6,2,16,0.01
2013-11-1,57.4,52.0,49.5,53.1,50.2,46.2,99,94,83,30.27,30.09,7,1,12,0.00
2013-11-2,60.4,54.6,51.6,53.4,51.1,48.6,99,88,71,30.27,29.72,4,0,9,0.26
2013-11-3,53.1,49.2,43.3,52.3,45.1,40.0,99,86,69,29.93,29.47,11,2,26,1.11
2013-11-4,54.3,44.6,38.5,45.4,41.3,37.4,99,88,65,30.12,29.94,4,0,11,0.01
2013-11-5,51.3,44.5,38.5,44.5,40.5,37.4,99,87,65,30.18,30.03,2,0,4,0.04
2013-11-6,52.7,47.6,44.1,51.0,46.7,42.4,99,97,92,30.27,30.00,6,0,11,0.02
2013-11-7,54.7,48.7,44.6,49.2,46.7,43.3,99,93,78,30.31,29.95,2,0,4,0.09
2013-11-8,51.3,49.3,48.2,49.9,48.3,46.0,99,96,87,30.00,29.70,8,2,19,0.86
2013-11-9,55.9,49.0,44.2,47.6,45.4,43.2,97,88,71,30.15,30.00,4,1,10,0.00
2013-11-10,51.4,46.1,40.8,46.3,44.4,40.2,99,94,81,30.14,30.06,2,0,6,0.07
2013-11-11,50.2,47.3,45.1,47.7,46.1,44.9,99,95,89,30.14,30.09,4,1,11,0.05
2013-11-12,58.5,49.3,45.7,49.7,46.3,44.4,99,90,69,30.16,29.99,4,1,10,0.00
2013-11-13,58.1,52.7,49.1,55.1,51.1,46.0,99,94,84,30.35,30.03,4,1,10,0.17
2013-11-14,52.0,51.7,51.4,51.5,51.2,50.9,99,98,98,30.36,30.35,6,3,13,0.00
2013-11-15,50.4,46.0,42.4,49.5,45.6,41.9,99,98,93,30.25,30.03,2,0,6,0.02
2013-11-16,48.9,45.7,42.6,48.5,44.4,40.8,99,95,89,30.03,29.31,9,2,23,0.09
2013-11-17,50.0,44.3,38.8,43.7,39.7,37.8,99,84,70,29.79,29.38,5,1,11,0.00
2013-11-18,52.5,48.1,43.5,48.7,45.9,40.4,96,92,85,29.89,29.79,7,2,20,0.00
2013-11-19,52.5,50.1,48.0,52.1,49.7,45.8,99,98,92,29.88,29.54,7,1,17,0.69
2013-11-20,52.5,42.8,34.7,52.3,36.9,25.1,99,81,54,30.11,29.55,5,1,12,0.12
2013-11-21,43.0,37.0,32.2,31.9,28.9,26.6,83,73,60,30.52,30.10,6,1,12,0.00
2013-11-22,43.0,35.4,30.2,30.1,28.2,25.5,87,75,58,30.66,30.52,4,1,8,0.00
2013-11-23,41.2,38.5,31.5,32.5,30.1,27.4,89,72,66,30.64,30.55,4,1,9,0.00
2013-11-24,41.2,41.2,41.2,30.7,30.7,30.7,66,66,66,30.56,30.56,2,2,6,0.00
2013-11-25,41.2,41.2,41.2,30.7,30.7,30.7,66,66,66,30.56,30.56,2,2,6,0.00
2013-11-26,41.2,41.2,41.2,30.7,30.7,30.7,66,66,66,30.56,30.56,2,2,6,0.00
2013-11-27,41.2,41.2,41.2,30.7,30.7,30.7,66,66,66,30.56,30.56,2,2,6,0.00
2013-11-28,46.9,41.8,38.3,43.8,34.1,30.7,97,75,66,30.56,29.92,3,1,8,0.01
2013-11-29,47.1,41.0,37.4,46.9,40.8,36.9,99,99,97,30.13,29.98,1,0,3,0.00
2013-11-30,48.7,45.1,40.3,47.2,44.5,40.0,99,98,93,30.26,30.13,2,0,4,0.01
2013-12-1,50.2,47.6,44.8,47.5,45.9,44.3,99,94,86,30.26,30.15,4,1,14,0.01
2013-12-2,53.2,50.0,39.7,52.7,47.7,37.0,99,92,85,29.70,29.44,8,3,15,0.04
2013-12-3,45.7,38.9,33.6,37.4,34.5,25.7,98,85,65,29.82,29.54,4,1,8,0.01
2013-12-4,39.0,33.7,28.4,29.8,25.3,22.2,90,72,53,30.03,29.82,5,1,14,0.01
2013-12-5,38.3,30.9,26.6,28.8,25.6,21.7,94,81,66,30.07,30.01,3,0,5,0.00
2013-12-6,34.5,29.3,25.7,24.8,21.6,12.7,92,73,52,30.03,29.90,2,0,4,0.00
2013-12-7,33.1,26.9,22.1,14.2,10.2,7.1,57,49,37,29.96,29.83,4,2,8,0.00
2013-12-8,30.0,23.9,19.9,13.1,8.8,4.0,71,53,34,30.15,29.95,4,1,8,0.00
2013-12-9,33.1,26.0,20.3,21.7,17.8,12.1,78,71,59,30.29,30.15,3,0,6,0.00
2013-12-10,33.8,30.7,23.9,31.3,24.7,17.8,91,78,70,30.30,30.19,2,0,6,0.00
2013-12-11,39.4,35.8,32.9,36.0,33.1,28.9,94,90,85,30.21,30.10,1,0,5,0.00
2013-12-12,40.6,35.4,30.6,38.9,34.1,29.6,99,95,86,30.13,29.85,3,0,7,0.00
2013-12-13,42.8,39.8,34.3,42.5,39.1,34.1,99,98,84,29.88,29.77,3,0,10,0.09
2013-12-14,44.1,43.3,42.8,43.6,43.1,42.5,99,99,99,29.91,29.88,4,2,8,0.00
2013-12-15,48.6,46.5,44.6,46.1,45.0,44.1,99,94,90,30.15,30.03,4,1,10,0.01
2013-12-16,50.2,48.2,45.9,49.4,47.7,45.3,99,98,96,30.18,30.03,5,1,11,0.08
2013-12-17,49.8,44.3,41.2,47.0,43.5,40.8,99,97,88,30.21,29.95,2,0,4,0.00
2013-12-18,44.1,42.2,40.6,43.4,41.8,40.4,99,98,96,29.96,29.82,4,0,13,0.00
2013-12-19,44.6,41.2,37.0,42.7,37.3,31.2,99,87,63,29.94,29.73,4,1,11,0.04
2013-12-20,40.3,35.4,32.0,31.2,27.2,23.4,81,72,58,30.06,29.88,4,0,11,0.00
2013-12-21,43.5,37.8,32.0,43.3,36.8,27.9,99,96,78,29.88,29.42,8,1,23,0.17
2013-12-22,45.3,42.7,39.9,45.1,42.5,39.7,99,99,99,29.87,29.60,4,0,6,0.14
2013-12-23,49.3,47.4,45.3,48.8,47.2,45.1,99,99,99,29.99,29.87,7,1,13,0.25
2013-12-24,55.6,47.5,41.7,50.8,45.7,40.0,99,94,77,30.26,29.82,8,2,24,0.02
2013-12-25,47.3,40.7,36.7,43.4,39.0,35.8,99,94,79,30.34,30.22,2,0,5,0.00
2013-12-26,132.4,38.0,32.9,58.1,36.1,32.7,99,96,10,30.23,30.08,49,1,49,0.76
2013-12-27,41.2,37.9,35.4,40.9,37.4,35.2,99,98,95,30.11,29.91,2,0,50,0.01
2013-12-28,45.0,41.3,36.0,44.7,41.1,35.7,99,99,99,30.13,29.82,4,0,8,0.02
2013-12-29,47.1,44.7,43.2,46.9,44.0,42.9,99,97,95,30.25,30.13,2,0,4,0.00
2013-12-30,45.1,40.6,36.9,43.8,40.2,36.6,99,99,95,30.19,30.01,24,0,3,0.01
2013-12-31,44.2,41.2,41.0,43.7,40.9,40.7,99,99,97,30.02,29.84,2,0,5,0.00
2014-1-1,45.3,43.5,39.7,45.1,43.0,39.5,99,98,93,30.11,29.91,2,0,6,0.01
2014-1-2,45.5,42.4,40.1,45.2,42.0,39.8,99,98,96,30.12,29.93,2,0,5,0.00